Time;durP1;ratioP1;P1;durP2;ratioP2;P2;SDS_P1;SDS_P2;PMS_P1;PMS_P2;Temp;Humidity;BMP_temperature;BMP_pressure;BME280_temperature;BME280_humidity;BME280_pressure;Samples;Min_cycle;Max_cycle;Signal;HPM_P1;HPM_P2
2022/06/11 00:01:46;;;;;;;15.60;14.30;;;14.50;99.90;;;;;;4966318;28;20510;-57
2022/06/11 00:04:15;;;;;;;17.13;15.83;;;14.40;99.90;;;;;;4965455;28;20472;-57
2022/06/11 00:06:45;;;;;;;15.47;14.17;;;14.40;99.90;;;;;;4961247;28;20558;-55
2022/06/11 00:09:12;;;;;;;16.17;14.87;;;14.40;99.90;;;;;;4963337;28;20471;-56
2022/06/11 00:11:40;;;;;;;16.70;15.23;;;14.30;99.90;;;;;;4970797;28;20436;-50
2022/06/11 00:14:06;;;;;;;16.67;15.40;;;14.30;99.90;;;;;;4966272;28;20523;-56
2022/06/11 00:16:32;;;;;;;16.60;15.40;;;14.30;99.90;;;;;;4971431;28;21180;-55
2022/06/11 00:19:00;;;;;;;17.17;15.87;;;14.20;99.90;;;;;;4973015;28;20531;-57
2022/06/11 00:21:30;;;;;;;17.93;16.50;;;14.20;99.90;;;;;;4961853;28;20440;-54
2022/06/11 00:23:56;;;;;;;16.97;15.60;;;14.20;99.90;;;;;;4968115;28;20468;-57
2022/06/11 00:26:22;;;;;;;16.20;15.00;;;14.10;99.90;;;;;;4967866;28;20447;-57
2022/06/11 00:28:49;;;;;;;17.47;15.77;;;14.10;99.90;;;;;;4955911;28;21354;-56
2022/06/11 00:31:16;;;;;;;18.07;16.50;;;14.10;99.90;;;;;;4965993;28;20188;-56
2022/06/11 00:33:42;;;;;;;17.67;16.17;;;14.10;99.90;;;;;;4965137;28;20432;-57
2022/06/11 00:36:09;;;;;;;16.87;15.43;;;14.10;99.90;;;;;;4968764;28;20999;-57
2022/06/11 00:38:37;;;;;;;16.17;14.87;;;14.10;99.90;;;;;;4967339;28;20436;-56
2022/06/11 00:41:04;;;;;;;17.40;15.90;;;14.00;99.90;;;;;;4960108;28;20459;-56
2022/06/11 00:43:30;;;;;;;17.10;15.50;;;14.00;99.90;;;;;;4965049;28;20488;-57
2022/06/11 00:46:40;;;;;;;16.80;15.30;;;14.00;99.90;;;;;;4968746;28;20447;-57
2022/06/11 00:49:26;;;;;;;17.17;15.77;;;14.00;99.90;;;;;;4972821;28;20460;-56
2022/06/11 00:52:03;;;;;;;17.47;15.73;;;13.90;99.90;;;;;;4968621;28;20448;-56
2022/06/11 00:54:31;;;;;;;17.47;16.07;;;13.90;99.90;;;;;;4968266;28;20934;-55
2022/06/11 00:56:58;;;;;;;18.40;16.80;;;13.80;99.90;;;;;;4968479;28;20542;-56
2022/06/11 00:59:30;;;;;;;17.40;16.00;;;13.80;99.90;;;;;;4965033;28;20455;-53
2022/06/11 01:01:55;;;;;;;17.77;16.37;;;13.80;99.90;;;;;;4962606;28;20440;-56
2022/06/11 01:04:56;;;;;;;17.43;16.03;;;13.70;99.90;;;;;;4961149;28;20510;-57
2022/06/11 01:07:52;;;;;;;16.77;15.43;;;13.70;99.90;;;;;;4967879;28;20831;-58
2022/06/11 01:10:44;;;;;;;17.80;16.40;;;13.70;99.90;;;;;;4965051;28;21101;-56
2022/06/11 01:13:34;;;;;;;18.67;17.10;;;13.60;99.90;;;;;;4967734;28;20907;-56
2022/06/11 01:16:38;;;;;;;17.10;15.70;;;13.60;99.90;;;;;;4967477;28;20444;-56
2022/06/11 01:19:22;;;;;;;18.40;16.57;;;13.60;99.90;;;;;;4967831;28;20443;-58
2022/06/11 01:22:46;;;;;;;17.63;16.27;;;13.50;99.90;;;;;;4967908;28;20440;-57
2022/06/11 01:26:02;;;;;;;19.53;17.77;;;13.50;99.90;;;;;;4948860;28;21047;-58
2022/06/11 01:28:39;;;;;;;19.20;17.60;;;13.50;99.90;;;;;;4980179;28;20487;-56
2022/06/11 01:31:20;;;;;;;17.37;16.07;;;13.50;99.90;;;;;;4968337;28;20436;-56
2022/06/11 01:34:20;;;;;;;18.87;17.27;;;13.40;99.90;;;;;;4968687;28;20436;-55
2022/06/11 01:36:48;;;;;;;19.20;17.37;;;13.40;99.90;;;;;;4960861;28;20428;-58
2022/06/11 01:39:32;;;;;;;19.47;17.57;;;13.40;99.90;;;;;;4969406;28;20428;-54
2022/06/11 01:42:20;;;;;;;19.10;17.50;;;13.30;99.90;;;;;;4966267;28;20468;-56
2022/06/11 01:44:57;;;;;;;19.30;17.37;;;13.20;99.90;;;;;;4972261;28;20519;-55
2022/06/11 01:47:23;;;;;;;18.13;16.63;;;13.20;99.90;;;;;;4972471;28;20498;-57
2022/06/11 01:49:49;;;;;;;19.13;17.53;;;13.20;99.90;;;;;;4979070;28;20436;-57
2022/06/11 01:52:24;;;;;;;19.10;17.40;;;13.20;99.90;;;;;;4966504;28;20196;-56
2022/06/11 01:55:02;;;;;;;20.43;18.80;;;13.20;99.90;;;;;;4974379;28;20204;-52
2022/06/11 01:58:05;;;;;;;18.23;16.63;;;13.10;99.90;;;;;;4971740;28;20483;-54
2022/06/11 02:00:42;;;;;;;19.70;18.00;;;13.10;99.90;;;;;;4965805;28;20466;-56
2022/06/11 02:03:27;;;;;;;18.43;16.93;;;13.10;99.90;;;;;;4967071;28;20930;-56
2022/06/11 02:06:17;;;;;;;19.37;17.60;;;13.00;99.90;;;;;;4966749;28;20444;-58
2022/06/11 02:09:02;;;;;;;19.30;17.60;;;13.00;99.90;;;;;;4972826;28;20518;-55
2022/06/11 02:11:45;;;;;;;19.23;17.63;;;13.00;99.90;;;;;;4972232;28;20432;-55
2022/06/11 02:14:33;;;;;;;18.40;17.00;;;13.00;99.90;;;;;;4970692;28;20543;-56
2022/06/11 02:17:05;;;;;;;19.90;18.10;;;12.90;99.90;;;;;;4974818;28;20455;-55
2022/06/11 02:19:40;;;;;;;19.10;17.50;;;12.90;99.90;;;;;;4971081;28;20454;-58
2022/06/11 02:22:23;;;;;;;19.70;17.87;;;12.90;99.90;;;;;;4973118;28;20449;-57
2022/06/11 02:25:16;;;;;;;18.47;16.97;;;12.90;99.90;;;;;;4972670;28;20464;-54
2022/06/11 02:27:45;;;;;;;20.70;18.90;;;12.80;99.90;;;;;;4973746;28;20440;-55
2022/06/11 02:30:15;;;;;;;19.97;18.27;;;12.80;99.90;;;;;;4971536;28;20459;-57
2022/06/11 02:32:40;;;;;;;19.47;17.67;;;12.80;99.90;;;;;;4968655;28;20937;-58
2022/06/11 02:35:10;;;;;;;20.57;18.50;;;12.80;99.90;;;;;;4971454;28;20436;-52
2022/06/11 02:37:43;;;;;;;20.30;18.70;;;12.70;99.90;;;;;;4971653;28;20551;-57
2022/06/11 02:40:15;;;;;;;20.13;18.40;;;12.60;99.90;;;;;;4971892;28;20435;-55
2022/06/11 02:42:42;;;;;;;20.20;18.50;;;12.70;99.90;;;;;;4968316;28;20490;-56
2022/06/11 02:45:10;;;;;;;20.93;19.03;;;12.60;99.90;;;;;;4972039;28;20555;-57
2022/06/11 02:47:37;;;;;;;19.47;17.87;;;12.60;99.90;;;;;;4969279;28;20474;-57
2022/06/11 02:50:03;;;;;;;21.17;19.37;;;12.60;99.90;;;;;;4971148;28;20467;-57
2022/06/11 02:52:29;;;;;;;20.53;18.80;;;12.60;99.90;;;;;;4969517;28;20804;-56
2022/06/11 02:54:55;;;;;;;20.70;18.90;;;12.60;99.90;;;;;;4969947;28;20443;-53
2022/06/11 02:57:27;;;;;;;20.70;19.00;;;12.60;99.90;;;;;;4971425;28;20480;-55
2022/06/11 02:59:53;;;;;;;20.10;18.40;;;12.60;99.90;;;;;;4970110;28;20719;-55
2022/06/11 03:02:21;;;;;;;21.30;19.30;;;12.50;99.90;;;;;;4978185;28;20515;-56
2022/06/11 03:04:47;;;;;;;20.70;18.83;;;12.50;99.90;;;;;;4964733;28;20620;-56
2022/06/11 03:07:13;;;;;;;20.47;18.77;;;12.50;99.90;;;;;;4981084;28;20444;-57
2022/06/11 03:09:41;;;;;;;21.43;19.53;;;12.50;99.90;;;;;;4969246;28;21040;-57
2022/06/11 03:12:09;;;;;;;20.43;18.70;;;12.50;99.90;;;;;;4969495;28;20592;-56
2022/06/11 03:14:35;;;;;;;22.10;20.20;;;12.40;99.90;;;;;;4965444;28;20779;-55
2022/06/11 03:17:01;;;;;;;22.13;20.13;;;12.40;99.90;;;;;;4970790;28;20432;-58
2022/06/11 03:19:26;;;;;;;20.53;18.83;;;12.40;99.90;;;;;;4970128;28;20519;-57
2022/06/11 03:21:54;;;;;;;21.20;19.40;;;12.50;99.90;;;;;;4968552;28;20831;-55
2022/06/11 03:24:21;;;;;;;21.63;19.43;;;12.40;99.90;;;;;;4971965;28;20216;-55
2022/06/11 03:26:48;;;;;;;21.17;19.20;;;12.50;99.90;;;;;;4969763;28;20452;-53
2022/06/11 03:29:15;;;;;;;21.50;19.70;;;12.40;99.90;;;;;;4972403;28;20793;-57
2022/06/11 03:31:42;;;;;;;21.03;19.20;;;12.40;99.90;;;;;;4961451;28;20471;-53
2022/06/11 03:34:07;;;;;;;21.53;19.63;;;12.40;99.90;;;;;;4970030;28;20446;-54
2022/06/11 03:36:33;;;;;;;20.80;19.00;;;12.40;99.90;;;;;;4965890;28;20436;-57
2022/06/11 03:38:58;;;;;;;20.67;18.87;;;12.40;99.90;;;;;;4972316;28;20185;-55
2022/06/11 03:41:24;;;;;;;21.07;19.20;;;12.40;99.90;;;;;;4970477;28;20197;-58
2022/06/11 03:43:50;;;;;;;21.47;19.67;;;12.40;99.90;;;;;;4968493;28;21067;-58
2022/06/11 03:46:17;;;;;;;22.23;20.27;;;12.40;99.90;;;;;;4966952;28;20918;-57
2022/06/11 03:48:42;;;;;;;21.53;19.43;;;12.40;99.90;;;;;;4971080;28;20412;-54
2022/06/11 03:51:09;;;;;;;20.27;18.67;;;12.50;99.90;;;;;;4970502;28;21143;-54
2022/06/11 03:53:36;;;;;;;20.20;18.40;;;12.50;99.90;;;;;;4971062;28;20547;-57
2022/06/11 03:56:05;;;;;;;21.03;19.07;;;12.50;99.90;;;;;;4968422;28;20472;-53
2022/06/11 03:58:31;;;;;;;20.97;19.07;;;12.50;99.90;;;;;;4968062;28;20487;-56
2022/06/11 04:01:15;;;;;;;20.50;18.70;;;12.50;99.90;;;;;;4969983;28;21050;-52
2022/06/11 04:03:48;;;;;;;19.77;18.07;;;12.60;99.90;;;;;;4971352;28;20530;-55
2022/06/11 04:06:15;;;;;;;18.47;16.90;;;12.60;99.90;;;;;;4969573;28;20444;-55
2022/06/11 04:08:41;;;;;;;19.60;17.90;;;12.70;99.90;;;;;;4954706;28;20445;-51
2022/06/11 04:11:08;;;;;;;19.50;17.70;;;12.70;99.90;;;;;;4968487;28;20457;-52
2022/06/11 04:13:35;;;;;;;20.10;18.40;;;12.80;99.90;;;;;;4976426;28;20539;-57
2022/06/11 04:16:02;;;;;;;19.20;17.50;;;12.80;99.90;;;;;;4970145;28;20436;-57
2022/06/11 04:18:33;;;;;;;19.20;17.60;;;12.80;99.90;;;;;;4961732;28;20469;-55
2022/06/11 04:21:01;;;;;;;19.37;17.70;;;12.90;99.90;;;;;;4970470;28;20424;-55
2022/06/11 04:23:29;;;;;;;19.60;17.80;;;12.90;99.90;;;;;;4963320;28;20434;-55
2022/06/11 04:25:57;;;;;;;18.43;16.90;;;13.00;99.90;;;;;;4969514;28;20428;-54
2022/06/11 04:28:25;;;;;;;18.70;17.20;;;13.00;99.90;;;;;;4976259;28;20503;-54
2022/06/11 04:30:50;;;;;;;18.83;17.10;;;13.10;99.90;;;;;;4969175;28;20475;-56
2022/06/11 04:33:16;;;;;;;19.63;17.93;;;13.10;99.90;;;;;;4966393;28;20450;-54
2022/06/11 04:35:41;;;;;;;18.50;16.90;;;13.20;99.90;;;;;;4970435;28;20200;-56
2022/06/11 04:38:07;;;;;;;18.00;16.40;;;13.20;99.90;;;;;;4964473;28;21021;-56
2022/06/11 04:40:33;;;;;;;17.93;16.40;;;13.30;99.90;;;;;;4970053;28;20191;-57
2022/06/11 04:42:58;;;;;;;18.53;17.03;;;13.40;99.90;;;;;;4967681;28;20299;-58
2022/06/11 04:45:24;;;;;;;18.17;16.60;;;13.40;99.90;;;;;;4960607;28;20220;-57
2022/06/11 04:47:49;;;;;;;19.30;17.80;;;13.50;99.90;;;;;;4969420;28;20648;-56
2022/06/11 04:50:17;;;;;;;18.40;16.80;;;13.60;99.90;;;;;;4964393;28;20193;-57
2022/06/11 04:52:43;;;;;;;17.83;16.40;;;13.60;99.90;;;;;;4969957;28;20192;-58
2022/06/11 04:55:09;;;;;;;17.23;15.93;;;13.70;99.90;;;;;;4960978;28;20558;-56
2022/06/11 04:57:35;;;;;;;17.67;16.07;;;13.70;99.90;;;;;;4965949;28;20237;-56
2022/06/11 05:00:00;;;;;;;16.93;15.30;;;13.80;99.90;;;;;;4953043;28;20444;-56
2022/06/11 05:02:26;;;;;;;16.33;15.07;;;13.90;99.90;;;;;;4965770;28;20189;-54
2022/06/11 05:04:52;;;;;;;16.70;15.43;;;14.00;99.90;;;;;;4976669;28;20235;-57
2022/06/11 05:07:19;;;;;;;16.30;14.80;;;14.00;99.90;;;;;;4965497;28;20273;-54
2022/06/11 05:09:45;;;;;;;16.70;15.40;;;14.10;99.90;;;;;;4999745;28;20436;-56
2022/06/11 05:12:12;;;;;;;15.53;14.10;;;14.20;99.90;;;;;;4968892;28;21001;-53
2022/06/11 05:14:38;;;;;;;16.27;14.77;;;14.20;99.90;;;;;;4969677;28;20432;-57
2022/06/11 05:17:04;;;;;;;15.00;13.90;;;14.30;99.90;;;;;;4963255;28;20504;-57
2022/06/11 05:19:30;;;;;;;14.50;13.40;;;14.50;99.90;;;;;;4972216;28;20506;-58
2022/06/11 05:21:56;;;;;;;15.57;14.17;;;14.50;99.90;;;;;;4976336;28;20459;-57
2022/06/11 05:24:22;;;;;;;14.57;13.47;;;14.60;99.90;;;;;;4966313;28;20270;-57
2022/06/11 05:26:52;;;;;;;14.87;13.73;;;14.60;99.90;;;;;;4979351;28;20447;-52
2022/06/11 05:29:29;;;;;;;14.80;13.60;;;14.80;99.90;;;;;;4974588;28;20443;-57
2022/06/11 05:31:55;;;;;;;14.80;13.40;;;14.90;99.90;;;;;;4980568;28;20440;-56
2022/06/11 05:34:21;;;;;;;13.77;12.70;;;15.00;99.90;;;;;;4974126;28;20446;-57
2022/06/11 05:36:48;;;;;;;13.00;12.00;;;15.10;99.90;;;;;;4973300;28;20449;-56
2022/06/11 05:39:14;;;;;;;13.33;12.23;;;15.20;99.90;;;;;;4975045;28;20546;-54
2022/06/11 05:41:40;;;;;;;13.53;12.33;;;15.40;99.90;;;;;;4975882;28;20443;-54
2022/06/11 05:44:06;;;;;;;13.30;12.30;;;15.50;99.90;;;;;;4971924;28;20472;-56
2022/06/11 05:46:32;;;;;;;13.27;12.37;;;15.60;99.90;;;;;;4974622;28;20945;-57
2022/06/11 05:49:01;;;;;;;13.90;12.80;;;15.70;99.90;;;;;;4975664;28;20790;-52
2022/06/11 05:51:38;;;;;;;12.00;11.03;;;15.90;99.90;;;;;;4975064;28;20544;-56
2022/06/11 05:54:08;;;;;;;12.13;11.17;;;16.00;99.90;;;;;;4973407;28;20463;-58
2022/06/11 05:56:35;;;;;;;11.77;10.80;;;16.20;99.90;;;;;;4982234;28;20479;-56
2022/06/11 05:59:04;;;;;;;13.20;12.20;;;16.30;99.90;;;;;;4978125;28;20429;-56
2022/06/11 06:01:35;;;;;;;12.40;11.50;;;16.50;99.90;;;;;;4958982;28;20450;-56
2022/06/11 06:04:01;;;;;;;12.27;11.37;;;16.50;99.90;;;;;;4969467;28;21005;-51
2022/06/11 06:06:27;;;;;;;11.33;10.53;;;16.50;99.90;;;;;;4954731;28;20461;-58
2022/06/11 06:08:53;;;;;;;11.17;10.37;;;16.50;99.90;;;;;;4961121;28;20963;-57
2022/06/11 06:11:18;;;;;;;12.07;11.17;;;16.60;99.90;;;;;;4960799;28;20319;-57
2022/06/11 06:13:47;;;;;;;12.70;11.80;;;16.60;99.90;;;;;;4957019;28;20281;-58
2022/06/11 06:16:33;;;;;;;12.00;11.10;;;16.70;99.90;;;;;;4956229;28;20270;-57
2022/06/11 06:19:00;;;;;;;11.67;10.87;;;16.80;99.90;;;;;;4951366;28;20471;-58
2022/06/11 06:21:30;;;;;;;11.60;10.70;;;16.90;99.90;;;;;;4952265;28;20929;-58
2022/06/11 06:23:56;;;;;;;12.37;11.10;;;17.00;99.90;;;;;;4951173;28;20577;-58
2022/06/11 06:26:22;;;;;;;10.73;9.90;;;17.20;99.90;;;;;;4951534;28;20525;-56
2022/06/11 06:28:48;;;;;;;10.53;9.30;;;17.30;99.90;;;;;;4955171;28;20577;-56
2022/06/11 06:31:15;;;;;;;11.37;10.47;;;17.40;99.90;;;;;;4949230;28;20440;-58
2022/06/11 06:33:42;;;;;;;9.57;8.87;;;17.50;99.90;;;;;;4947463;28;20189;-57
2022/06/11 06:36:09;;;;;;;8.97;8.20;;;17.60;99.90;;;;;;4951330;28;20439;-55
2022/06/11 06:38:36;;;;;;;10.33;9.40;;;17.70;99.90;;;;;;4950986;28;21000;-58
2022/06/11 06:41:03;;;;;;;11.17;10.27;;;17.90;99.90;;;;;;4947445;28;20827;-59
2022/06/11 06:43:29;;;;;;;11.43;10.53;;;18.00;99.90;;;;;;4950251;28;20534;-56
2022/06/11 06:45:54;;;;;;;11.33;10.20;;;18.10;99.90;;;;;;4952167;28;20515;-53
2022/06/11 06:48:20;;;;;;;10.10;9.20;;;18.20;99.90;;;;;;4967411;28;20189;-57
2022/06/11 06:50:46;;;;;;;9.97;9.37;;;18.50;99.90;;;;;;4971975;28;20555;-56
2022/06/11 06:53:12;;;;;;;9.23;8.53;;;18.60;99.90;;;;;;4971831;28;20840;-55
2022/06/11 06:55:38;;;;;;;10.00;9.20;;;18.70;99.90;;;;;;4971993;28;20188;-55
2022/06/11 06:58:04;;;;;;;9.20;8.60;;;18.80;99.90;;;;;;4971444;28;20504;-53
2022/06/11 07:00:29;;;;;;;9.40;8.60;;;19.00;99.90;;;;;;4972548;28;20506;-56
2022/06/11 07:02:55;;;;;;;8.73;8.10;;;19.20;99.90;;;;;;4969909;28;20327;-56
2022/06/11 07:05:22;;;;;;;9.47;8.77;;;19.30;99.90;;;;;;4970305;28;20228;-56
2022/06/11 07:07:48;;;;;;;9.17;8.53;;;19.40;99.90;;;;;;4970242;28;20542;-55
2022/06/11 07:10:15;;;;;;;8.57;8.00;;;19.50;99.90;;;;;;4980031;28;20861;-55
2022/06/11 07:12:40;;;;;;;8.97;8.30;;;19.60;99.90;;;;;;4969464;28;20495;-57
2022/06/11 07:15:06;;;;;;;9.20;8.60;;;19.80;99.90;;;;;;4972576;28;20855;-55
2022/06/11 07:17:37;;;;;;;8.97;8.37;;;19.90;99.90;;;;;;4968677;28;20217;-56
2022/06/11 07:20:14;;;;;;;9.27;8.57;;;20.10;99.90;;;;;;4971729;28;20460;-57
2022/06/11 07:22:57;;;;;;;8.00;7.40;;;20.30;99.90;;;;;;4969249;28;20802;-56
2022/06/11 07:25:24;;;;;;;7.93;7.43;;;20.40;99.90;;;;;;4971470;28;20464;-52
2022/06/11 07:27:56;;;;;;;8.00;7.40;;;20.60;99.90;;;;;;4968830;28;20806;-54
2022/06/11 07:30:25;;;;;;;7.90;7.40;;;20.70;99.90;;;;;;4971892;28;20567;-58
2022/06/11 07:33:05;;;;;;;7.27;6.77;;;20.90;99.60;;;;;;4971428;28;20437;-55
2022/06/11 07:35:34;;;;;;;7.60;7.10;;;21.00;99.20;;;;;;4972274;28;20420;-52
2022/06/11 07:38:00;;;;;;;7.63;7.10;;;21.30;98.50;;;;;;4963134;28;20931;-53
2022/06/11 07:40:26;;;;;;;7.43;6.93;;;21.40;97.20;;;;;;4967360;28;20430;-55
2022/06/11 07:42:51;;;;;;;7.07;6.57;;;21.60;96.50;;;;;;4965932;28;20451;-54
2022/06/11 07:45:17;;;;;;;7.23;6.70;;;21.80;96.10;;;;;;4975682;28;20244;-55
2022/06/11 07:47:55;;;;;;;7.00;6.50;;;22.00;95.00;;;;;;4971211;28;20242;-58
2022/06/11 07:50:36;;;;;;;7.07;6.63;;;22.10;94.10;;;;;;4964831;28;20188;-57
2022/06/11 07:53:04;;;;;;;7.80;7.30;;;22.30;93.50;;;;;;4971281;28;20423;-54
2022/06/11 07:55:30;;;;;;;7.40;7.00;;;22.50;93.20;;;;;;4952661;28;20499;-53
2022/06/11 07:57:56;;;;;;;7.40;6.90;;;22.70;92.30;;;;;;4952807;29;20426;-56
2022/06/11 08:00:35;;;;;;;8.00;7.40;;;22.90;91.90;;;;;;4968037;28;20498;-56
2022/06/11 08:03:01;;;;;;;6.47;6.17;;;23.00;91.20;;;;;;4952513;28;20516;-57
2022/06/11 08:05:26;;;;;;;7.10;6.60;;;23.20;91.60;;;;;;4951782;28;20556;-55
2022/06/11 08:07:52;;;;;;;6.70;6.20;;;23.30;90.40;;;;;;4970924;28;20220;-57
2022/06/11 08:10:19;;;;;;;6.70;6.30;;;23.60;90.20;;;;;;4971659;28;20177;-54
2022/06/11 08:12:45;;;;;;;7.17;6.77;;;23.70;87.90;;;;;;4954145;28;20193;-56
2022/06/11 08:15:11;;;;;;;6.50;6.10;;;23.90;87.10;;;;;;4952227;28;20441;-54
2022/06/11 08:17:38;;;;;;;7.50;7.10;;;24.20;81.90;;;;;;4961960;28;20193;-54
2022/06/11 08:20:05;;;;;;;6.97;6.43;;;24.50;79.80;;;;;;4971378;28;20884;-58
2022/06/11 08:22:31;;;;;;;6.53;6.13;;;24.80;79.90;;;;;;4963298;28;20450;-57
2022/06/11 08:24:57;;;;;;;6.77;6.30;;;25.20;69.50;;;;;;4971290;28;20500;-57
2022/06/11 08:27:24;;;;;;;7.27;6.77;;;25.40;61.90;;;;;;4967488;28;20953;-54
2022/06/11 08:29:50;;;;;;;7.03;6.53;;;25.70;62.70;;;;;;4952267;28;20199;-57
2022/06/11 08:32:15;;;;;;;6.93;6.43;;;25.90;61.10;;;;;;4968118;28;20795;-55
2022/06/11 08:34:45;;;;;;;6.00;5.60;;;26.00;59.30;;;;;;4952370;28;20211;-57
2022/06/11 08:37:11;;;;;;;5.90;5.60;;;26.00;55.20;;;;;;4951967;28;20169;-54
2022/06/11 08:39:37;;;;;;;5.77;5.47;;;26.10;53.00;;;;;;4951379;28;20444;-55
2022/06/11 08:42:03;;;;;;;6.07;5.77;;;26.10;52.80;;;;;;4977160;28;20830;-57
2022/06/11 08:44:33;;;;;;;6.17;5.80;;;26.10;54.00;;;;;;4961632;28;20207;-55
2022/06/11 08:47:03;;;;;;;6.27;5.90;;;26.40;52.50;;;;;;4973682;28;20434;-56
2022/06/11 08:49:44;;;;;;;6.40;6.00;;;26.70;51.80;;;;;;4971256;28;20439;-56
2022/06/11 08:52:11;;;;;;;6.30;6.00;;;27.00;52.10;;;;;;4959235;28;20423;-56
2022/06/11 08:54:41;;;;;;;6.03;5.63;;;27.40;50.90;;;;;;4969920;28;20439;-57
2022/06/11 08:57:28;;;;;;;6.00;5.60;;;27.60;46.60;;;;;;4970263;28;20471;-51
2022/06/11 09:00:09;;;;;;;5.20;4.90;;;27.80;44.20;;;;;;4968895;28;20864;-54
2022/06/11 09:02:53;;;;;;;4.83;4.50;;;28.10;42.60;;;;;;4968998;28;20431;-57
2022/06/11 09:05:30;;;;;;;5.33;5.03;;;28.20;38.50;;;;;;4956368;28;20817;-54
2022/06/11 09:08:02;;;;;;;5.60;5.20;;;28.10;38.60;;;;;;4960535;28;20466;-56
2022/06/11 09:10:50;;;;;;;6.03;5.53;;;27.80;39.10;;;;;;4960948;28;20420;-55
2022/06/11 09:13:49;;;;;;;5.30;5.00;;;27.70;38.90;;;;;;4971677;28;20448;-54
2022/06/11 09:16:36;;;;;;;5.77;5.47;;;27.60;39.20;;;;;;4958092;28;21167;-54
2022/06/11 09:19:30;;;;;;;6.57;6.03;;;27.70;38.70;;;;;;4984876;28;20498;-52
2022/06/11 09:22:02;;;;;;;5.80;5.40;;;27.80;39.00;;;;;;4970753;28;20432;-55
2022/06/11 09:24:56;;;;;;;5.83;5.43;;;27.60;39.20;;;;;;4966727;28;20517;-55
2022/06/11 09:27:52;;;;;;;6.03;5.53;;;27.60;39.50;;;;;;4969532;28;20476;-55
2022/06/11 09:30:26;;;;;;;5.27;4.97;;;27.90;40.00;;;;;;4968531;28;20444;-55
2022/06/11 09:33:01;;;;;;;6.07;5.67;;;28.80;37.20;;;;;;4970283;28;20810;-54
2022/06/11 09:35:29;;;;;;;6.30;5.87;;;29.40;36.30;;;;;;4961450;28;20527;-55
2022/06/11 09:38:16;;;;;;;6.30;6.00;;;29.80;34.30;;;;;;4967676;28;20926;-54
2022/06/11 09:40:44;;;;;;;5.50;5.13;;;30.20;33.70;;;;;;4987356;28;20509;-54
2022/06/11 09:43:15;;;;;;;5.43;5.10;;;30.50;32.00;;;;;;4975417;28;20511;-55
2022/06/11 09:45:51;;;;;;;5.20;5.00;;;30.30;29.90;;;;;;4967385;28;20841;-57
2022/06/11 09:48:41;;;;;;;4.63;4.33;;;30.10;30.30;;;;;;4964895;28;20442;-54
2022/06/11 09:51:15;;;;;;;5.00;4.60;;;30.00;30.50;;;;;;4969418;28;20519;-55
2022/06/11 09:53:45;;;;;;;4.60;4.30;;;30.40;28.70;;;;;;4966968;28;20473;-52
2022/06/11 09:56:21;;;;;;;5.10;4.70;;;30.70;28.40;;;;;;4970384;28;20479;-59
2022/06/11 09:59:11;;;;;;;5.00;4.70;;;32.00;27.00;;;;;;4969925;28;20834;-51
2022/06/11 10:01:51;;;;;;;5.07;4.77;;;33.10;25.80;;;;;;4968837;28;20820;-56
2022/06/11 10:04:21;;;;;;;4.87;4.67;;;33.30;25.40;;;;;;4969339;28;20546;-54
2022/06/11 10:06:53;;;;;;;5.20;4.97;;;33.90;24.90;;;;;;4972722;28;20451;-52
2022/06/11 10:09:25;;;;;;;5.70;5.40;;;34.10;24.40;;;;;;4973931;28;20412;-57
2022/06/11 10:12:19;;;;;;;5.10;4.80;;;33.90;24.50;;;;;;4960721;28;20445;-56
2022/06/11 10:15:13;;;;;;;5.50;5.20;;;33.80;24.60;;;;;;4973893;28;20758;-53
2022/06/11 10:17:51;;;;;;;5.10;4.80;;;33.20;25.40;;;;;;4977696;28;20494;-52
2022/06/11 10:20:20;;;;;;;5.90;5.60;;;32.60;25.30;;;;;;4973260;28;20981;-53
2022/06/11 10:23:14;;;;;;;5.50;5.23;;;32.10;26.20;;;;;;4961477;28;20967;-54
2022/06/11 10:25:59;;;;;;;5.60;5.30;;;31.80;26.50;;;;;;4973619;28;20475;-54
2022/06/11 10:28:24;;;;;;;5.43;5.13;;;32.10;26.00;;;;;;4966885;28;20416;-56
2022/06/11 10:31:28;;;;;;;5.17;4.97;;;32.70;26.60;;;;;;4973747;28;20430;-54
2022/06/11 10:33:53;;;;;;;5.40;5.10;;;33.20;26.10;;;;;;4996599;28;20207;-55
2022/06/11 10:36:25;;;;;;;5.17;4.77;;;34.30;24.90;;;;;;4982853;28;20545;-56
2022/06/11 10:38:58;;;;;;;5.57;5.27;;;35.40;23.70;;;;;;4968636;28;20193;-53
2022/06/11 10:41:35;;;;;;;5.60;5.30;;;36.30;22.40;;;;;;4973286;28;20420;-55
2022/06/11 10:44:11;;;;;;;4.97;4.77;;;36.80;21.70;;;;;;4970573;28;20468;-55
2022/06/11 10:46:37;;;;;;;5.40;4.90;;;37.10;20.80;;;;;;4976562;28;20777;-55
2022/06/11 10:49:09;;;;;;;5.47;5.27;;;36.40;19.30;;;;;;4966469;28;20441;-56
2022/06/11 10:51:37;;;;;;;5.77;5.43;;;34.60;20.30;;;;;;4973119;28;20982;-53
2022/06/11 10:54:35;;;;;;;5.20;5.00;;;33.60;21.20;;;;;;4962080;28;20484;-56
2022/06/11 10:57:06;;;;;;;5.50;5.30;;;33.20;23.70;;;;;;4983017;28;20489;-58
2022/06/11 10:59:49;;;;;;;5.40;4.90;;;33.70;23.50;;;;;;4973055;28;20939;-52
2022/06/11 11:02:25;;;;;;;6.13;5.83;;;34.70;22.60;;;;;;4979873;28;20455;-56
2022/06/11 11:05:02;;;;;;;5.73;5.43;;;35.50;21.30;;;;;;4971303;28;20471;-56
2022/06/11 11:07:59;;;;;;;5.60;5.30;;;35.80;20.50;;;;;;4972803;28;20510;-54
2022/06/11 11:10:37;;;;;;;5.70;5.47;;;35.20;20.60;;;;;;4962789;28;20447;-54
2022/06/11 11:13:14;;;;;;;5.17;4.93;;;34.90;21.30;;;;;;4972407;28;20428;-56
2022/06/11 11:15:43;;;;;;;5.97;5.53;;;34.20;21.50;;;;;;4968458;28;20463;-56
2022/06/11 11:18:16;;;;;;;6.10;5.70;;;33.20;22.50;;;;;;4970514;28;20448;-56
2022/06/11 11:20:44;;;;;;;5.30;5.00;;;32.40;23.60;;;;;;4972142;28;20895;-53
2022/06/11 11:23:10;;;;;;;5.73;5.43;;;32.00;24.40;;;;;;4972525;28;20458;-57
2022/06/11 11:25:49;;;;;;;5.87;5.57;;;31.40;24.90;;;;;;4971416;28;20471;-55
2022/06/11 11:28:43;;;;;;;6.00;5.60;;;30.70;25.20;;;;;;4971996;28;20553;-50
2022/06/11 11:31:19;;;;;;;6.27;5.87;;;30.10;25.20;;;;;;4970660;28;20943;-55
2022/06/11 11:34:01;;;;;;;5.27;5.07;;;30.00;26.80;;;;;;4972242;28;20430;-53
2022/06/11 11:36:28;;;;;;;6.73;5.77;;;30.40;26.20;;;;;;4960439;28;20441;-56
2022/06/11 11:39:17;;;;;;;5.77;5.47;;;30.50;25.50;;;;;;4972204;28;20432;-53
2022/06/11 11:41:59;;;;;;;5.13;4.90;;;30.70;26.10;;;;;;4971588;28;20432;-56
2022/06/11 11:44:33;;;;;;;5.30;5.10;;;31.70;25.30;;;;;;4972305;28;20468;-54
2022/06/11 11:47:02;;;;;;;4.97;4.77;;;32.80;24.80;;;;;;4971383;28;20440;-53
2022/06/11 11:49:31;;;;;;;5.57;5.37;;;33.70;23.80;;;;;;4972097;28;20649;-53
2022/06/11 11:52:15;;;;;;;5.37;5.00;;;34.00;23.20;;;;;;4962866;28;20573;-52
2022/06/11 11:54:54;;;;;;;5.53;5.23;;;33.20;23.20;;;;;;4970697;28;20435;-56
2022/06/11 11:57:20;;;;;;;6.00;5.50;;;32.10;24.30;;;;;;4970589;28;20487;-56
2022/06/11 12:00:23;;;;;;;5.93;5.53;;;32.30;24.70;;;;;;4982505;28;21319;-56
2022/06/11 12:02:55;;;;;;;5.73;5.43;;;32.50;24.10;;;;;;4958189;28;20503;-55
2022/06/11 12:05:24;;;;;;;5.40;5.00;;;33.30;24.90;;;;;;4954533;28;20975;-52
2022/06/11 12:07:52;;;;;;;5.33;5.03;;;34.30;22.80;;;;;;4966231;28;20455;-55
2022/06/11 12:10:17;;;;;;;5.20;5.00;;;35.00;23.00;;;;;;4971427;28;21142;-53
2022/06/11 12:12:48;;;;;;;5.47;5.10;;;35.20;21.00;;;;;;4971495;28;20420;-55
2022/06/11 12:15:22;;;;;;;5.73;5.43;;;35.10;20.90;;;;;;4973784;28;20182;-55
2022/06/11 12:17:56;;;;;;;5.40;5.10;;;34.90;21.20;;;;;;4975738;28;20453;-56
2022/06/11 12:20:57;;;;;;;5.77;5.47;;;33.90;22.20;;;;;;4971734;28;20848;-56
2022/06/11 12:23:29;;;;;;;5.80;5.50;;;33.50;22.20;;;;;;4990783;28;21064;-55
2022/06/11 12:26:16;;;;;;;5.60;5.30;;;33.70;23.10;;;;;;4971339;28;20468;-56
2022/06/11 12:29:05;;;;;;;6.00;5.60;;;33.20;22.80;;;;;;4966963;28;21000;-54
2022/06/11 12:31:31;;;;;;;5.63;5.30;;;32.70;23.90;;;;;;4967462;28;20432;-54
2022/06/11 12:33:58;;;;;;;5.57;5.37;;;31.70;24.60;;;;;;4961545;28;20429;-55
2022/06/11 12:36:55;;;;;;;5.77;5.40;;;31.40;25.90;;;;;;4955186;28;20942;-56
2022/06/11 12:39:21;;;;;;;5.63;5.33;;;31.50;26.20;;;;;;4963601;28;20432;-56
2022/06/11 12:41:57;;;;;;;5.37;4.97;;;31.70;25.30;;;;;;4969004;28;20439;-55
2022/06/11 12:44:40;;;;;;;5.93;5.57;;;31.70;25.90;;;;;;4968273;28;20200;-52
2022/06/11 12:47:23;;;;;;;5.67;5.37;;;31.80;24.90;;;;;;4973823;28;20444;-56
2022/06/11 12:50:10;;;;;;;5.67;5.37;;;31.90;23.70;;;;;;4968062;28;20436;-54
2022/06/11 12:52:54;;;;;;;5.70;5.20;;;31.80;24.20;;;;;;4962087;28;21592;-53
2022/06/11 12:55:42;;;;;;;5.50;5.30;;;32.00;24.60;;;;;;4964636;28;20544;-54
2022/06/11 12:58:26;;;;;;;5.50;5.20;;;32.80;23.70;;;;;;4965990;28;20536;-53
2022/06/11 13:01:00;;;;;;;5.60;5.20;;;32.90;23.20;;;;;;4958663;28;20436;-53
2022/06/11 13:04:02;;;;;;;5.97;5.40;;;32.20;23.40;;;;;;4967046;28;20471;-56
2022/06/11 13:06:48;;;;;;;5.50;5.30;;;31.90;24.60;;;;;;4967394;28;20799;-53